Time;durP1;ratioP1;P1;durP2;ratioP2;P2;SDS_P1;SDS_P2;PMS_P1;PMS_P2;Temp;Humidity;BMP_temperature;BMP_pressure;BME280_temperature;BME280_humidity;BME280_pressure;Samples;Min_cycle;Max_cycle;Signal;HPM_P1;HPM_P2
2021/01/09 00:00:22;;;;;;;17.27;7.65;;;1.30;93.00;;;;;;4989399;28;20050;-52
2021/01/09 00:02:48;;;;;;;10.23;5.68;;;1.20;92.90;;;;;;4970170;28;20085;-53
2021/01/09 00:05:14;;;;;;;8.43;4.78;;;1.10;93.00;;;;;;4984945;28;20133;-48
2021/01/09 00:07:40;;;;;;;9.68;5.22;;;1.10;92.90;;;;;;4988254;28;20142;-48
2021/01/09 00:10:08;;;;;;;10.45;5.40;;;1.00;93.00;;;;;;4988320;28;20045;-48
2021/01/09 00:12:38;;;;;;;10.98;5.43;;;1.00;93.10;;;;;;4986999;28;20422;-51
2021/01/09 00:15:05;;;;;;;10.20;5.53;;;0.90;92.90;;;;;;4982663;28;20574;-48
2021/01/09 00:17:31;;;;;;;10.15;5.43;;;0.90;93.00;;;;;;4973090;28;20046;-56
2021/01/09 00:19:58;;;;;;;9.68;5.53;;;0.80;92.90;;;;;;4981492;28;20042;-50
2021/01/09 00:22:24;;;;;;;10.35;5.72;;;0.70;92.90;;;;;;4986946;28;20042;-53
2021/01/09 00:24:49;;;;;;;12.05;5.53;;;0.70;93.00;;;;;;4980832;28;20042;-51
2021/01/09 00:27:15;;;;;;;10.23;5.32;;;0.70;93.10;;;;;;4991170;28;20057;-54
2021/01/09 00:29:42;;;;;;;8.35;5.18;;;0.70;93.20;;;;;;4989447;28;20045;-53
2021/01/09 00:32:08;;;;;;;10.68;5.43;;;0.70;93.30;;;;;;4981451;28;20046;-54
2021/01/09 00:34:38;;;;;;;10.15;5.20;;;0.70;93.10;;;;;;4982429;28;20083;-56
2021/01/09 00:37:04;;;;;;;10.60;5.28;;;0.70;93.10;;;;;;4978747;28;20092;-54
2021/01/09 00:39:30;;;;;;;9.73;5.45;;;0.70;93.00;;;;;;4976565;28;20050;-54
2021/01/09 00:42:01;;;;;;;9.25;5.47;;;0.60;93.00;;;;;;4982754;28;20064;-52
2021/01/09 00:44:28;;;;;;;11.60;5.75;;;0.60;93.00;;;;;;4985679;28;20053;-54
2021/01/09 00:46:54;;;;;;;10.10;5.88;;;0.50;93.00;;;;;;4985236;28;20047;-53
2021/01/09 00:49:20;;;;;;;10.75;5.50;;;0.50;93.00;;;;;;4986359;28;20065;-56
2021/01/09 00:51:46;;;;;;;9.25;4.90;;;0.50;93.00;;;;;;4983533;28;20027;-56
2021/01/09 00:54:14;;;;;;;10.73;5.40;;;0.40;93.00;;;;;;4991754;28;20043;-54
2021/01/09 00:56:40;;;;;;;9.05;5.35;;;0.40;93.10;;;;;;4992950;28;20416;-52
2021/01/09 00:59:05;;;;;;;10.10;5.38;;;0.40;93.20;;;;;;4972051;28;20043;-55
2021/01/09 01:01:32;;;;;;;10.80;5.70;;;0.40;93.20;;;;;;4977480;28;20055;-48
2021/01/09 01:03:57;;;;;;;11.27;5.80;;;0.40;93.30;;;;;;4976061;28;20057;-51
2021/01/09 01:06:24;;;;;;;9.10;5.57;;;0.50;93.30;;;;;;4987105;28;20110;-51
2021/01/09 01:08:51;;;;;;;10.32;5.80;;;0.50;93.30;;;;;;4974288;28;20134;-52
2021/01/09 01:11:25;;;;;;;11.82;6.00;;;0.50;93.30;;;;;;4975734;28;20114;-52
2021/01/09 01:13:51;;;;;;;12.02;5.95;;;0.50;93.20;;;;;;4979022;28;20050;-48
2021/01/09 01:16:17;;;;;;;11.88;6.45;;;0.50;93.20;;;;;;4982967;28;20447;-49
2021/01/09 01:18:44;;;;;;;11.13;5.60;;;0.50;93.20;;;;;;4987386;28;20050;-48
2021/01/09 01:21:09;;;;;;;10.77;5.53;;;0.50;93.20;;;;;;4993502;28;20514;-55
2021/01/09 01:23:35;;;;;;;8.07;4.55;;;0.50;93.20;;;;;;4992930;28;20620;-55
2021/01/09 01:26:01;;;;;;;8.70;4.97;;;0.50;93.10;;;;;;4994509;28;20690;-49
2021/01/09 01:28:26;;;;;;;10.00;5.40;;;0.50;93.10;;;;;;4992610;28;20475;-51
2021/01/09 01:30:52;;;;;;;10.15;5.63;;;0.50;93.10;;;;;;4991125;28;20137;-51
2021/01/09 01:33:18;;;;;;;7.93;5.15;;;0.50;93.20;;;;;;4989863;28;20042;-51
2021/01/09 01:35:43;;;;;;;9.85;6.03;;;0.50;93.20;;;;;;4975109;28;20090;-52
2021/01/09 01:38:09;;;;;;;8.82;5.40;;;0.50;93.20;;;;;;4983441;28;20045;-52
2021/01/09 01:40:34;;;;;;;10.98;6.00;;;0.50;93.20;;;;;;4991297;28;20235;-55
2021/01/09 01:43:00;;;;;;;9.63;5.75;;;0.50;93.10;;;;;;4993677;28;20679;-51
2021/01/09 01:45:28;;;;;;;10.55;5.75;;;0.50;93.10;;;;;;4977869;28;20054;-50
2021/01/09 01:47:57;;;;;;;12.85;6.15;;;0.50;93.10;;;;;;4995358;28;20039;-51
2021/01/09 01:50:23;;;;;;;11.45;6.85;;;0.40;93.10;;;;;;4993705;28;20034;-53
2021/01/09 01:52:53;;;;;;;11.57;5.43;;;0.40;93.20;;;;;;4989789;28;20054;-52
2021/01/09 01:55:20;;;;;;;10.40;5.90;;;0.40;93.10;;;;;;4975659;28;20042;-48
2021/01/09 01:57:46;;;;;;;12.18;5.88;;;0.40;93.20;;;;;;4980206;28;20117;-49
2021/01/09 02:00:12;;;;;;;11.27;6.55;;;0.40;93.10;;;;;;4990750;28;20070;-50
2021/01/09 02:02:38;;;;;;;10.07;6.30;;;0.40;93.10;;;;;;4989460;28;20499;-48
2021/01/09 02:05:05;;;;;;;11.18;6.18;;;0.40;93.10;;;;;;4993265;28;20042;-55
2021/01/09 02:07:39;;;;;;;11.45;6.35;;;0.30;93.00;;;;;;4992859;28;20054;-51
2021/01/09 02:10:09;;;;;;;12.00;6.55;;;0.40;93.20;;;;;;4986031;28;20423;-53
2021/01/09 02:12:51;;;;;;;11.18;6.18;;;0.40;93.10;;;;;;4986299;28;20077;-51
2021/01/09 02:15:17;;;;;;;12.82;6.95;;;0.40;93.10;;;;;;4959781;28;20050;-53
2021/01/09 02:17:44;;;;;;;12.15;6.55;;;0.50;93.20;;;;;;4985386;28;20077;-52
2021/01/09 02:20:12;;;;;;;12.38;6.90;;;0.50;93.10;;;;;;4988055;28;20058;-50
2021/01/09 02:22:44;;;;;;;11.88;6.40;;;0.50;93.20;;;;;;4985299;28;20058;-54
2021/01/09 02:25:11;;;;;;;11.60;6.25;;;0.50;93.20;;;;;;4980024;28;20038;-51
2021/01/09 02:27:40;;;;;;;10.68;6.35;;;0.50;93.20;;;;;;4984970;28;20066;-51
2021/01/09 02:30:11;;;;;;;10.52;6.30;;;0.50;93.20;;;;;;4984288;28;20050;-54
2021/01/09 02:32:48;;;;;;;12.15;6.72;;;0.50;93.00;;;;;;4977217;28;20034;-53
2021/01/09 02:35:15;;;;;;;9.93;6.00;;;0.40;93.10;;;;;;4978191;28;20053;-52
2021/01/09 02:37:43;;;;;;;8.98;5.75;;;0.30;93.00;;;;;;4973104;28;20042;-50
2021/01/09 02:40:13;;;;;;;10.80;6.25;;;0.30;92.80;;;;;;4986463;28;20042;-56
2021/01/09 02:42:39;;;;;;;12.32;6.05;;;0.20;92.90;;;;;;4978112;28;20069;-56
2021/01/09 02:45:06;;;;;;;10.90;6.38;;;0.20;92.80;;;;;;4964198;28;20034;-56
2021/01/09 02:47:32;;;;;;;11.25;5.85;;;0.10;92.90;;;;;;4966930;28;20121;-51
2021/01/09 02:50:02;;;;;;;11.13;6.13;;;0.10;93.00;;;;;;4964593;28;20126;-53
2021/01/09 02:52:28;;;;;;;10.93;6.10;;;0.00;93.00;;;;;;4959822;28;20045;-53
2021/01/09 02:54:54;;;;;;;12.52;6.63;;;0.00;93.00;;;;;;4967343;28;20495;-54
2021/01/09 02:57:20;;;;;;;16.65;6.05;;;-0.10;93.00;;;;;;4974684;28;20038;-50
2021/01/09 02:59:46;;;;;;;11.23;6.20;;;-0.10;93.10;;;;;;4976295;28;20487;-53
2021/01/09 03:02:12;;;;;;;9.30;5.63;;;-0.10;93.10;;;;;;4983971;28;20137;-53
2021/01/09 03:04:38;;;;;;;10.13;5.55;;;-0.20;93.10;;;;;;4987344;28;20146;-53
2021/01/09 03:07:03;;;;;;;10.20;6.03;;;-0.20;93.10;;;;;;4981746;28;20046;-55
2021/01/09 03:09:29;;;;;;;9.90;5.72;;;-0.20;93.20;;;;;;4977245;28;20038;-52
2021/01/09 03:11:54;;;;;;;10.48;6.63;;;-0.20;93.10;;;;;;4987946;28;20210;-51
2021/01/09 03:14:20;;;;;;;10.32;5.65;;;-0.20;93.20;;;;;;4984177;28;20114;-51
2021/01/09 03:16:46;;;;;;;18.67;7.32;;;-0.20;93.20;;;;;;4982039;28;20039;-51
2021/01/09 03:19:12;;;;;;;41.90;8.50;;;-0.20;93.30;;;;;;4957271;28;20043;-50
2021/01/09 03:21:39;;;;;;;37.45;7.85;;;-0.20;93.50;;;;;;4963668;28;20107;-50
2021/01/09 03:24:05;;;;;;;130.45;10.18;;;-0.20;93.40;;;;;;4991693;28;20486;-51
2021/01/09 03:26:31;;;;;;;110.97;10.18;;;-0.20;93.30;;;;;;4974572;28;20054;-53
2021/01/09 03:28:57;;;;;;;183.48;12.77;;;-0.20;93.30;;;;;;4953621;28;20057;-49
2021/01/09 03:31:27;;;;;;;110.35;10.13;;;-0.20;93.60;;;;;;4979164;28;20459;-48
2021/01/09 03:33:53;;;;;;;149.85;10.02;;;-0.20;93.50;;;;;;4983867;28;20258;-53
2021/01/09 03:36:18;;;;;;;146.38;9.32;;;-0.20;93.70;;;;;;4989145;28;20088;-50
2021/01/09 03:38:44;;;;;;;102.05;9.18;;;-0.20;93.60;;;;;;4975425;28;20066;-50
2021/01/09 03:41:09;;;;;;;173.38;9.70;;;-0.10;93.80;;;;;;4984934;28;20085;-51
2021/01/09 03:43:35;;;;;;;178.15;10.52;;;-0.10;93.80;;;;;;4983906;28;20069;-54
2021/01/09 03:46:01;;;;;;;127.65;9.23;;;-0.10;93.80;;;;;;4980653;28;20047;-52
2021/01/09 03:48:26;;;;;;;81.57;6.72;;;-0.10;93.70;;;;;;4980706;28;20038;-50
2021/01/09 03:50:53;;;;;;;43.60;6.10;;;-0.10;93.80;;;;;;4981932;28;20050;-51
2021/01/09 03:53:18;;;;;;;65.43;6.32;;;-0.10;93.70;;;;;;4975866;28;20035;-50
2021/01/09 03:55:44;;;;;;;65.07;6.60;;;-0.10;93.70;;;;;;4979697;28;20085;-52
2021/01/09 03:58:09;;;;;;;81.72;7.53;;;-0.10;93.70;;;;;;4981035;28;20442;-54
2021/01/09 04:00:35;;;;;;;28.13;5.55;;;-0.10;93.90;;;;;;4976688;28;20059;-50
2021/01/09 04:03:01;;;;;;;104.40;7.35;;;-0.10;93.70;;;;;;4985544;28;20053;-50
2021/01/09 04:05:26;;;;;;;82.32;6.90;;;-0.20;93.80;;;;;;4995363;28;20042;-49
2021/01/09 04:07:52;;;;;;;38.45;5.95;;;-0.10;93.80;;;;;;4994209;28;20107;-54
2021/01/09 04:10:18;;;;;;;24.33;4.93;;;-0.20;93.80;;;;;;4995913;28;20114;-53
2021/01/09 04:12:44;;;;;;;9.32;4.57;;;-0.10;93.70;;;;;;4971648;28;20134;-54
2021/01/09 04:15:11;;;;;;;13.13;4.82;;;-0.10;93.70;;;;;;4994415;28;20166;-50
2021/01/09 04:17:37;;;;;;;7.22;4.80;;;-0.10;93.70;;;;;;4992288;28;20034;-50
2021/01/09 04:20:03;;;;;;;7.38;4.63;;;0.00;93.70;;;;;;4994096;28;20402;-49
2021/01/09 04:22:30;;;;;;;8.85;4.80;;;0.00;93.70;;;;;;4991387;28;20109;-51
2021/01/09 04:24:55;;;;;;;12.05;5.35;;;0.10;93.70;;;;;;4991873;28;20062;-54
2021/01/09 04:27:21;;;;;;;8.85;5.60;;;0.00;93.90;;;;;;4986794;28;20047;-57
2021/01/09 04:29:47;;;;;;;9.20;5.32;;;0.10;93.70;;;;;;4961365;28;20053;-54
2021/01/09 04:32:13;;;;;;;9.48;5.50;;;0.10;93.70;;;;;;4966064;28;20050;-54
2021/01/09 04:34:38;;;;;;;10.70;5.65;;;0.10;93.60;;;;;;4978818;28;20479;-53
2021/01/09 04:37:04;;;;;;;9.77;5.45;;;0.20;93.60;;;;;;4981910;28;20121;-53
2021/01/09 04:39:30;;;;;;;8.60;5.55;;;0.20;93.60;;;;;;4988974;28;20042;-54
2021/01/09 04:41:55;;;;;;;7.97;5.13;;;0.20;93.50;;;;;;4973858;28;20391;-54
2021/01/09 04:44:21;;;;;;;9.90;5.80;;;0.20;93.60;;;;;;4980144;28;20050;-57
2021/01/09 04:46:55;;;;;;;10.05;5.25;;;0.20;93.60;;;;;;4993702;28;20046;-56
2021/01/09 04:49:25;;;;;;;9.65;5.30;;;0.20;93.50;;;;;;4993638;28;20050;-55
2021/01/09 04:51:52;;;;;;;10.02;5.60;;;0.30;93.60;;;;;;4976004;28;20035;-53
2021/01/09 04:54:20;;;;;;;8.93;5.45;;;0.20;93.60;;;;;;4987139;28;20049;-52
2021/01/09 04:56:50;;;;;;;10.52;5.78;;;0.30;93.60;;;;;;4987044;28;20039;-51
2021/01/09 04:59:17;;;;;;;13.00;6.10;;;0.30;93.60;;;;;;4989697;28;20148;-51
2021/01/09 05:01:45;;;;;;;10.80;5.43;;;0.30;93.60;;;;;;4980699;28;20061;-54
2021/01/09 05:04:11;;;;;;;9.88;6.20;;;0.40;93.70;;;;;;4980736;28;20046;-56
2021/01/09 05:06:38;;;;;;;11.52;6.05;;;0.40;93.60;;;;;;4991605;28;20435;-53
2021/01/09 05:09:04;;;;;;;12.63;6.00;;;0.40;93.70;;;;;;4981894;28;20447;-54
2021/01/09 05:11:34;;;;;;;10.13;5.95;;;0.50;93.70;;;;;;4990402;28;20042;-56
2021/01/09 05:14:02;;;;;;;10.38;6.22;;;0.50;93.70;;;;;;4989340;28;20050;-55
2021/01/09 05:16:28;;;;;;;9.70;5.82;;;0.50;93.70;;;;;;4981564;28;20042;-54
2021/01/09 05:18:53;;;;;;;10.60;6.13;;;0.50;93.70;;;;;;4974793;28;20039;-54
2021/01/09 05:21:20;;;;;;;11.43;5.95;;;0.50;93.70;;;;;;4986975;28;20177;-54
2021/01/09 05:24:11;;;;;;;13.15;6.00;;;0.60;93.80;;;;;;4973836;28;20456;-55
2021/01/09 05:26:37;;;;;;;10.13;5.53;;;0.60;93.70;;;;;;4983220;28;20042;-54
2021/01/09 05:29:05;;;;;;;11.10;5.95;;;0.60;93.60;;;;;;4989464;28;20043;-55
2021/01/09 05:31:35;;;;;;;10.45;5.65;;;0.60;93.60;;;;;;4992844;28;20054;-54
2021/01/09 05:34:02;;;;;;;11.77;6.57;;;0.70;93.70;;;;;;4992708;28;20039;-54
2021/01/09 05:36:28;;;;;;;11.57;5.95;;;0.70;93.60;;;;;;4992816;28;20117;-55
2021/01/09 05:38:53;;;;;;;10.85;6.63;;;0.70;93.60;;;;;;4990004;28;20515;-52
2021/01/09 05:41:21;;;;;;;11.93;6.07;;;0.70;93.70;;;;;;4989804;28;20065;-54
2021/01/09 05:44:04;;;;;;;9.68;5.82;;;0.70;93.70;;;;;;4992417;28;20058;-53
2021/01/09 05:46:38;;;;;;;12.18;5.53;;;0.70;93.70;;;;;;4990884;28;20041;-53
2021/01/09 05:49:05;;;;;;;10.48;5.65;;;0.70;93.60;;;;;;4985007;28;20046;-55
2021/01/09 05:51:32;;;;;;;11.43;5.70;;;0.80;93.70;;;;;;4986029;28;20107;-54
2021/01/09 05:53:58;;;;;;;7.95;5.10;;;0.80;93.80;;;;;;4975244;28;20039;-51
2021/01/09 05:56:24;;;;;;;11.60;5.78;;;0.80;93.80;;;;;;4980354;28;20049;-55
2021/01/09 05:58:51;;;;;;;10.25;5.25;;;0.90;94.00;;;;;;4989885;28;20054;-50
2021/01/09 06:01:27;;;;;;;13.75;5.30;;;1.00;93.90;;;;;;4992010;28;20042;-47
2021/01/09 06:04:03;;;;;;;8.93;5.55;;;1.00;93.90;;;;;;4969086;28;20510;-50
2021/01/09 06:06:39;;;;;;;9.00;4.80;;;1.00;93.80;;;;;;4959792;28;20166;-55
2021/01/09 06:09:09;;;;;;;10.05;5.07;;;1.00;93.80;;;;;;4986035;28;20136;-47
2021/01/09 06:11:36;;;;;;;10.75;5.00;;;1.10;93.80;;;;;;4990258;28;20058;-54
2021/01/09 06:14:05;;;;;;;11.68;5.43;;;1.10;93.80;;;;;;4984471;28;20050;-47
2021/01/09 06:16:32;;;;;;;10.30;5.20;;;1.10;93.90;;;;;;4983692;28;20031;-53
2021/01/09 06:18:59;;;;;;;11.57;5.15;;;1.10;93.90;;;;;;4978355;28;20049;-53
2021/01/09 06:21:26;;;;;;;9.77;5.28;;;1.10;93.90;;;;;;4983638;28;20146;-52
2021/01/09 06:23:54;;;;;;;11.70;5.15;;;1.20;94.00;;;;;;4979514;28;20062;-51
2021/01/09 06:26:21;;;;;;;11.35;4.93;;;1.20;94.00;;;;;;4978380;28;20502;-47
2021/01/09 06:28:51;;;;;;;11.90;5.03;;;1.20;94.00;;;;;;4991977;28;20104;-50
2021/01/09 06:31:20;;;;;;;13.63;5.30;;;1.20;93.80;;;;;;4987119;28;20542;-48
2021/01/09 06:33:49;;;;;;;11.30;5.20;;;1.30;93.80;;;;;;4979499;28;20046;-49
2021/01/09 06:36:17;;;;;;;12.50;4.97;;;1.30;93.80;;;;;;4984618;28;20065;-48
2021/01/09 06:38:53;;;;;;;10.30;4.97;;;1.30;93.80;;;;;;4971502;28;20070;-50
2021/01/09 06:41:21;;;;;;;12.13;4.90;;;1.30;93.80;;;;;;4985255;28;20049;-47
2021/01/09 06:43:52;;;;;;;10.23;4.40;;;1.30;93.80;;;;;;4988870;28;20495;-53
2021/01/09 06:46:35;;;;;;;8.73;4.80;;;1.30;93.90;;;;;;4978813;28;20419;-52
2021/01/09 06:49:03;;;;;;;9.60;4.53;;;1.30;93.80;;;;;;4983405;28;20487;-52
2021/01/09 06:51:37;;;;;;;9.32;5.13;;;1.30;93.90;;;;;;4986394;28;20038;-47
2021/01/09 06:54:15;;;;;;;9.05;4.95;;;1.30;93.90;;;;;;4971599;28;20073;-48
2021/01/09 06:56:43;;;;;;;7.50;4.35;;;1.20;93.90;;;;;;4976680;28;20046;-52
2021/01/09 06:59:09;;;;;;;7.57;4.47;;;1.20;93.90;;;;;;4979175;28;20435;-47
2021/01/09 07:01:38;;;;;;;7.63;4.07;;;1.20;94.00;;;;;;4979071;28;20042;-47
2021/01/09 07:04:07;;;;;;;8.90;4.65;;;1.20;93.90;;;;;;4972076;28;20058;-50
2021/01/09 07:06:58;;;;;;;10.45;4.28;;;1.10;93.90;;;;;;4987921;28;20093;-52
2021/01/09 07:09:25;;;;;;;9.18;4.28;;;1.10;93.90;;;;;;4990213;28;20049;-54
2021/01/09 07:11:54;;;;;;;8.60;3.97;;;1.10;93.90;;;;;;4981207;28;20098;-54
2021/01/09 07:14:20;;;;;;;6.38;3.88;;;1.10;93.80;;;;;;4980412;28;20049;-54
2021/01/09 07:16:47;;;;;;;6.90;3.97;;;1.00;93.80;;;;;;4982599;28;20113;-51
2021/01/09 07:19:14;;;;;;;9.40;3.83;;;1.00;93.90;;;;;;4990982;28;20046;-52
2021/01/09 07:21:40;;;;;;;8.38;3.67;;;1.00;93.90;;;;;;4982893;28;20050;-51
2021/01/09 07:24:15;;;;;;;10.63;3.85;;;1.00;94.00;;;;;;4980320;28;20039;-49
2021/01/09 07:26:42;;;;;;;8.55;3.97;;;1.00;94.00;;;;;;4990000;28;20039;-49
2021/01/09 07:29:09;;;;;;;8.40;3.70;;;1.00;94.00;;;;;;4991429;28;20065;-53
2021/01/09 07:31:39;;;;;;;6.82;3.85;;;1.00;94.00;;;;;;4969502;28;20575;-51
2021/01/09 07:34:11;;;;;;;10.60;3.90;;;1.00;93.90;;;;;;4963721;28;20054;-51
2021/01/09 07:36:39;;;;;;;8.55;4.10;;;1.00;94.00;;;;;;4972721;28;20039;-51
2021/01/09 07:39:05;;;;;;;12.00;3.92;;;1.00;94.00;;;;;;4981962;28;20073;-52
2021/01/09 07:41:37;;;;;;;7.22;3.67;;;1.00;94.00;;;;;;4984291;28;20042;-52
2021/01/09 07:44:12;;;;;;;7.60;3.70;;;1.00;93.90;;;;;;4976768;28;20082;-49
2021/01/09 07:46:56;;;;;;;8.57;3.30;;;1.00;94.00;;;;;;4988338;28;20049;-49
2021/01/09 07:49:29;;;;;;;7.47;3.75;;;1.10;94.40;;;;;;4978007;28;20045;-53
2021/01/09 07:52:02;;;;;;;6.75;3.90;;;1.10;94.10;;;;;;4984529;28;20396;-53
2021/01/09 07:54:29;;;;;;;;;;;1.20;94.10;;;;;;4982965;28;20046;-55
2021/01/09 07:56:55;;;;;;;10.35;3.88;;;1.20;94.00;;;;;;4985997;28;20237;-56
2021/01/09 07:59:20;;;;;;;7.55;3.40;;;1.20;93.90;;;;;;4985319;28;20403;-56
2021/01/09 08:01:46;;;;;;;9.18;4.13;;;1.20;93.90;;;;;;4982892;28;20038;-56
2021/01/09 08:04:12;;;;;;;9.25;3.90;;;1.20;93.80;;;;;;4988384;28;20141;-56
2021/01/09 08:06:41;;;;;;;7.45;3.85;;;1.20;93.80;;;;;;4985970;28;20050;-55
2021/01/09 08:09:07;;;;;;;10.85;4.10;;;1.20;93.80;;;;;;4987449;28;20045;-55
2021/01/09 08:11:40;;;;;;;7.80;3.95;;;1.20;93.80;;;;;;4987087;28;20048;-56
2021/01/09 08:14:06;;;;;;;9.32;3.78;;;1.20;93.80;;;;;;4989056;28;20060;-56
2021/01/09 08:16:32;;;;;;;6.97;3.95;;;1.20;93.90;;;;;;4990028;28;20042;-56
2021/01/09 08:19:10;;;;;;;7.82;3.80;;;1.20;93.90;;;;;;4986935;28;20092;-52
2021/01/09 08:21:36;;;;;;;9.25;4.18;;;1.20;93.90;;;;;;4984471;28;20475;-53
2021/01/09 08:24:02;;;;;;;7.88;3.85;;;1.20;93.90;;;;;;4985840;28;20499;-56
2021/01/09 08:26:32;;;;;;;8.00;3.80;;;1.20;93.90;;;;;;4985546;28;20105;-53
2021/01/09 08:28:58;;;;;;;10.15;3.47;;;1.20;93.90;;;;;;4984205;28;20062;-53
2021/01/09 08:31:25;;;;;;;8.45;3.60;;;1.20;93.90;;;;;;4984614;28;20038;-55
2021/01/09 08:33:51;;;;;;;7.75;3.30;;;1.30;93.90;;;;;;4984649;28;20621;-55
2021/01/09 08:36:19;;;;;;;8.40;3.80;;;1.20;93.90;;;;;;4986428;28;20121;-53
2021/01/09 08:38:45;;;;;;;8.10;4.18;;;1.30;94.00;;;;;;4990299;28;20101;-55
2021/01/09 08:41:11;;;;;;;9.65;4.00;;;1.30;94.00;;;;;;4983762;28;20039;-56
2021/01/09 08:43:36;;;;;;;6.57;3.40;;;1.30;93.90;;;;;;4983681;28;20038;-55
2021/01/09 08:46:02;;;;;;;7.57;3.47;;;1.30;93.90;;;;;;4987060;28;20030;-53
2021/01/09 08:48:36;;;;;;;7.15;2.90;;;1.30;93.80;;;;;;4986591;28;20066;-51
2021/01/09 08:51:07;;;;;;;7.07;2.90;;;1.30;93.70;;;;;;4975406;28;20050;-55
2021/01/09 08:53:43;;;;;;;9.07;3.20;;;1.30;93.90;;;;;;4982248;28;20411;-56
2021/01/09 08:56:09;;;;;;;8.23;3.55;;;1.30;93.80;;;;;;4983715;28;20042;-56
2021/01/09 08:58:38;;;;;;;6.60;3.47;;;1.30;93.80;;;;;;4989519;28;20101;-56
2021/01/09 09:01:17;;;;;;;7.45;3.42;;;1.30;93.80;;;;;;4991114;28;20046;-56
2021/01/09 09:03:51;;;;;;;6.53;3.00;;;1.30;93.90;;;;;;4990506;28;20130;-56
2021/01/09 09:06:20;;;;;;;6.20;3.13;;;1.40;93.90;;;;;;4993063;28;20062;-53
2021/01/09 09:08:47;;;;;;;6.88;3.15;;;1.40;93.90;;;;;;4979615;28;20491;-55
2021/01/09 09:11:15;;;;;;;6.28;2.95;;;1.50;93.90;;;;;;4992443;28;20053;-55
2021/01/09 09:13:41;;;;;;;7.72;3.22;;;1.50;93.90;;;;;;4984397;28;20054;-53
2021/01/09 09:16:16;;;;;;;7.72;2.90;;;1.60;94.10;;;;;;4987688;28;20431;-54
2021/01/09 09:18:42;;;;;;;9.73;3.00;;;1.70;94.10;;;;;;4981984;28;20046;-53
2021/01/09 09:21:09;;;;;;;11.00;2.95;;;1.70;94.10;;;;;;4975609;28;20390;-56
2021/01/09 09:23:35;;;;;;;9.55;3.05;;;1.80;94.00;;;;;;4979494;28;20114;-50
2021/01/09 09:26:12;;;;;;;6.28;2.80;;;1.90;94.00;;;;;;4991788;28;20472;-54
2021/01/09 09:28:56;;;;;;;11.65;2.80;;;2.00;94.00;;;;;;4993020;28;20443;-53
2021/01/09 09:31:30;;;;;;;9.88;2.67;;;2.00;93.80;;;;;;4984028;28;20050;-56
2021/01/09 09:34:01;;;;;;;8.93;2.50;;;2.10;93.90;;;;;;4988311;28;20041;-56
2021/01/09 09:36:27;;;;;;;6.80;2.83;;;2.10;93.90;;;;;;4989275;28;20039;-54
2021/01/09 09:38:53;;;;;;;6.07;2.42;;;2.10;93.90;;;;;;4985949;28;20542;-51
2021/01/09 09:41:19;;;;;;;5.85;2.30;;;2.20;93.80;;;;;;4981470;28;20046;-56
2021/01/09 09:43:58;;;;;;;6.57;2.70;;;2.30;93.80;;;;;;4984533;28;20046;-53
2021/01/09 09:46:24;;;;;;;6.65;2.30;;;2.30;93.80;;;;;;4983002;28;20035;-53
2021/01/09 09:48:51;;;;;;;8.02;2.40;;;2.30;93.70;;;;;;4981890;28;20047;-56
2021/01/09 09:51:16;;;;;;;8.60;2.50;;;2.30;93.70;;;;;;4987394;28;20046;-56
2021/01/09 09:53:54;;;;;;;6.90;2.85;;;2.30;93.70;;;;;;4986003;28;20121;-52
2021/01/09 09:56:22;;;;;;;9.38;2.55;;;2.30;93.80;;;;;;4984016;28;20512;-52
2021/01/09 09:58:59;;;;;;;6.18;2.25;;;2.30;93.80;;;;;;4990901;28;20665;-56
2021/01/09 10:01:25;;;;;;;7.72;2.70;;;2.40;93.80;;;;;;4990313;28;20054;-56
2021/01/09 10:03:51;;;;;;;4.05;1.98;;;2.40;93.80;;;;;;4989823;28;20050;-55
2021/01/09 10:06:17;;;;;;;8.35;2.60;;;2.40;93.90;;;;;;4987328;28;20041;-53
2021/01/09 10:08:43;;;;;;;5.78;2.08;;;2.50;93.90;;;;;;4982419;28;20044;-55
2021/01/09 10:11:10;;;;;;;7.40;2.58;;;2.50;93.90;;;;;;4988425;28;20045;-53
2021/01/09 10:13:36;;;;;;;4.25;2.35;;;2.50;93.90;;;;;;4989127;28;20098;-54
2021/01/09 10:16:03;;;;;;;7.68;2.67;;;2.60;93.90;;;;;;4983725;28;20052;-55
2021/01/09 10:18:32;;;;;;;5.47;1.92;;;2.70;93.80;;;;;;4982085;28;20043;-54
2021/01/09 10:20:59;;;;;;;8.18;2.78;;;2.70;93.90;;;;;;4981841;28;20061;-54
2021/01/09 10:23:25;;;;;;;5.38;2.10;;;2.70;93.90;;;;;;4982197;28;20051;-53
2021/01/09 10:25:51;;;;;;;9.23;2.70;;;2.70;93.80;;;;;;4986074;28;20045;-54
2021/01/09 10:28:17;;;;;;;6.95;3.15;;;2.80;93.80;;;;;;4973887;28;20039;-55
2021/01/09 10:30:46;;;;;;;5.43;2.50;;;2.90;94.00;;;;;;4987454;28;20058;-55
2021/01/09 10:33:12;;;;;;;4.25;2.22;;;2.90;94.00;;;;;;4990759;28;20034;-51
2021/01/09 10:35:38;;;;;;;7.57;2.60;;;3.00;94.00;;;;;;4987820;28;20179;-55
2021/01/09 10:38:03;;;;;;;5.75;2.25;;;3.00;93.90;;;;;;4984104;28;20050;-56
2021/01/09 10:40:29;;;;;;;4.13;2.00;;;3.00;94.10;;;;;;4981063;28;20406;-56
2021/01/09 10:42:54;;;;;;;7.07;2.05;;;3.10;93.80;;;;;;4971578;28;20097;-55
2021/01/09 10:45:20;;;;;;;3.53;1.75;;;3.10;93.90;;;;;;4979301;28;20042;-55
2021/01/09 10:47:46;;;;;;;4.30;1.77;;;3.20;93.90;;;;;;4984905;28;20661;-56
2021/01/09 10:50:12;;;;;;;7.97;2.10;;;3.20;93.80;;;;;;4982846;28;20042;-56
2021/01/09 10:52:38;;;;;;;5.80;1.80;;;3.20;93.80;;;;;;4982220;28;20049;-56
2021/01/09 10:55:05;;;;;;;4.05;1.73;;;3.20;93.90;;;;;;4977831;28;20051;-56
2021/01/09 10:57:30;;;;;;;4.97;1.80;;;3.20;93.90;;;;;;4985300;28;20069;-56
2021/01/09 10:59:56;;;;;;;7.80;1.92;;;3.30;93.90;;;;;;4988935;28;20430;-57
2021/01/09 11:02:22;;;;;;;6.13;2.05;;;3.30;93.90;;;;;;4987414;28;20582;-54
2021/01/09 11:04:47;;;;;;;3.20;1.60;;;3.40;93.90;;;;;;4981126;28;20054;-55
2021/01/09 11:07:14;;;;;;;4.72;1.67;;;3.40;93.90;;;;;;4957512;28;20049;-56
2021/01/09 11:09:39;;;;;;;3.42;1.40;;;3.40;93.90;;;;;;4984318;28;20054;-55
2021/01/09 11:12:05;;;;;;;5.43;1.58;;;3.50;93.80;;;;;;4974628;28;20517;-52
2021/01/09 11:14:31;;;;;;;2.30;1.30;;;3.60;93.80;;;;;;4981621;28;20050;-55
2021/01/09 11:16:59;;;;;;;10.32;1.80;;;3.60;93.70;;;;;;4980409;28;20089;-54
2021/01/09 11:19:25;;;;;;;5.28;1.70;;;3.60;93.80;;;;;;4979396;28;20051;-55
2021/01/09 11:21:50;;;;;;;6.03;1.70;;;3.70;93.70;;;;;;4983569;28;20055;-53
2021/01/09 11:24:16;;;;;;;7.35;1.67;;;3.70;93.80;;;;;;4984534;28;20078;-55
2021/01/09 11:26:42;;;;;;;6.82;1.80;;;3.70;93.70;;;;;;4970252;28;20066;-53
2021/01/09 11:29:07;;;;;;;9.32;2.38;;;3.80;93.80;;;;;;4990501;28;20062;-52
2021/01/09 11:31:33;;;;;;;8.98;2.10;;;3.90;93.80;;;;;;4984419;28;20104;-53
2021/01/09 11:33:59;;;;;;;8.77;2.05;;;3.90;93.80;;;;;;4982581;28;20046;-55
2021/01/09 11:36:25;;;;;;;7.00;2.30;;;4.00;93.80;;;;;;4978444;28;20047;-54
2021/01/09 11:38:51;;;;;;;7.35;2.15;;;4.00;93.70;;;;;;4981923;28;20446;-54
2021/01/09 11:41:18;;;;;;;7.97;2.50;;;4.00;93.60;;;;;;4981220;28;20072;-55
2021/01/09 11:43:44;;;;;;;9.35;2.22;;;4.00;93.60;;;;;;4985357;28;20046;-54
2021/01/09 11:46:10;;;;;;;7.88;2.55;;;4.00;93.70;;;;;;4986119;28;20486;-55
2021/01/09 11:48:36;;;;;;;7.72;2.10;;;4.00;93.70;;;;;;4982410;28;20042;-55
2021/01/09 11:51:05;;;;;;;8.82;2.28;;;4.10;93.70;;;;;;4991261;28;20061;-55
2021/01/09 11:53:31;;;;;;;5.22;2.45;;;4.10;93.70;;;;;;4989396;28;20399;-55
2021/01/09 11:55:56;;;;;;;9.02;2.00;;;4.10;93.70;;;;;;4987120;28;20039;-54
2021/01/09 11:58:22;;;;;;;7.75;2.03;;;4.10;93.70;;;;;;4988116;28;20444;-53
2021/01/09 12:00:48;;;;;;;6.28;1.88;;;4.10;93.70;;;;;;4988055;28;20097;-52
2021/01/09 12:03:14;;;;;;;4.80;2.00;;;4.10;93.60;;;;;;4988835;28;20558;-54
2021/01/09 12:05:40;;;;;;;7.20;1.90;;;4.10;93.70;;;;;;4992357;28;20058;-53
2021/01/09 12:08:06;;;;;;;7.25;2.15;;;4.20;93.80;;;;;;4975873;28;20051;-55
2021/01/09 12:10:33;;;;;;;6.00;1.58;;;4.20;93.70;;;;;;4978521;28;20047;-53
2021/01/09 12:13:01;;;;;;;8.77;2.17;;;4.20;93.60;;;;;;4988520;28;20043;-54
2021/01/09 12:15:27;;;;;;;6.70;1.92;;;4.20;93.50;;;;;;4987887;28;20085;-55
2021/01/09 12:17:52;;;;;;;5.10;1.85;;;4.20;93.40;;;;;;4992237;28;20410;-55
2021/01/09 12:20:18;;;;;;;6.00;1.88;;;4.10;93.40;;;;;;4982848;28;20507;-52
2021/01/09 12:22:43;;;;;;;5.95;1.80;;;4.20;93.50;;;;;;4991977;28;20399;-55
2021/01/09 12:25:09;;;;;;;6.50;1.80;;;4.20;93.50;;;;;;4986419;28;20385;-53
2021/01/09 12:27:35;;;;;;;6.63;1.92;;;4.20;93.50;;;;;;4992169;28;20490;-52
2021/01/09 12:30:01;;;;;;;11.07;2.30;;;4.20;93.50;;;;;;4994338;28;20045;-53
2021/01/09 12:32:27;;;;;;;7.35;1.92;;;4.20;93.50;;;;;;4974339;28;20121;-53
2021/01/09 12:34:53;;;;;;;7.57;1.90;;;4.30;93.50;;;;;;4985604;28;20472;-54
2021/01/09 12:37:19;;;;;;;8.63;1.80;;;4.40;93.50;;;;;;4990973;28;20038;-55
2021/01/09 12:39:45;;;;;;;8.93;2.30;;;4.40;93.50;;;;;;4991600;28;20044;-54
2021/01/09 12:42:11;;;;;;;8.73;2.22;;;4.50;93.60;;;;;;4993857;28;20092;-53
2021/01/09 12:44:37;;;;;;;7.03;2.40;;;4.60;93.50;;;;;;4994721;28;20042;-54
2021/01/09 12:47:03;;;;;;;9.73;2.13;;;4.60;93.40;;;;;;4993356;28;20042;-51
2021/01/09 12:49:29;;;;;;;9.68;1.85;;;4.70;93.20;;;;;;4987728;28;20091;-52
2021/01/09 12:51:58;;;;;;;5.90;1.92;;;4.70;93.10;;;;;;4991675;28;20513;-54